Strona główna
METAR-TAF:

METAR-TAF

Lotnisko :

Fernando de Noronha, Pernambuco, Brazylia

Szerokość geograficzna: 03-51S, Długość geograficzna: 032-25W, wysokość: 56 m

Aktualna obserwacja pogody

Raport powstał 5 godziny i 15 minut temu, godzina 22:00 UTC
Wiatr 8 kt od wschodnio-południowy wschód
Temperatura 26°C
Wilgotność 79%
Ciśnienie 1014 hPa
Widzialność 10 km lub więcej
Mało chmury na wysokości 1700 ft

METAR: SBFN 232200Z 12008KT 9999 FEW017 26/22 Q1014

czas: 01:15 (03:15 UTC)

Prognoza

Raport powstał 5 godziny i 15 minut temu, godzina 22:00 UTC
Prognoza ważna od 24 godzina 00 UTC do 24 godzina 12 UTC
Wiatr 15 kt od wschodnio-południowy wschód
Widzialność 10 km lub więcej
Rozproszone chmury na wysokości 1700 ft
Stopniowe zmiany
od 24 godzina 05 UTC do 24 godzina 07 UTC
Wiatr 15 kt od południowy wschód

TAF: SBFN 232200Z 2400/2412 12015KT 9999 SCT017 TN25/2405Z TX26/2411Z BECMG 2405/2407 13015KT RMK PEU

Obserwacja i prognoza pogody dla ponad 4000 lotnisk (raport METAR i TAF).

Dostępne stacje oznaczono żółtymi i czerwonymi punktami na mapie.

Najedź kursorem aby zobaczyć nazwę stacji.

Kliknij aby zobaczyć obserwacje i prognozy pogody.

Aby zmienić mapę: kliknij na zielony przycisk z czarnym krzyżykiem, aby powiększyć; na zielony przycisk z myślnikiem, aby pomniejszyć; na zielone strzałki, aby przejść do map sąsiednich.


METAR-TAF: